Terminal Aerodrome Forecast
Issued by NWS

Home | Current Version | Previous Version | Text Only | Print | Product List | Glossary Off
Versions: 1 2 3 4 5 6 7 8 9 10 11 12 13

561
FTUS41 KCLE 252059 AAA
TAFFDY
TAF AMD
KFDY 252059Z 2521/2618 18010KT P6SM SCT080 BKN200
     FM260000 18006KT P6SM BKN200
     FM260900 18004KT P6SM VCTS SCT025CB BKN080
     FM261000 VRB03KT 4SM -TSRA OVC025CB
     FM261200 18006KT 4SM BR BKN035
     FM261500 21008KT P6SM BKN080=

USA.gov is the U.S. government's official web portal to all federal, state and local government web resources and services.